Moment Of Zen — WDH6746 — position and weather

sailwx.info

Track history (hours):
 
Tides and Currents Weather Stations Pressure Air Temp Water Temp Dewpoint Dewpoint Depression Visibility Wind Speed Wind Dir Waves Ship Positions

Moment Of Zen

Owner: Schroath, Frederick W, Green Cove Springs, FL. More information available from US FCC via Universal Licensing System and Coast Guard Vessel Documentation Center.

Last reported at 2017-Dec-12 18:40 UTC. Time now 2018-Jan-20 03:01 UTC.
Position N 31°58' W 081°03'.
Warning: this ship's position is 38 days out of date.

Length 11 m.

Type: Pleasure craft. MMSI: 367641240.

Date/timePositionNaut miles runAvg speedWind from/ knotsBaromVisibWave heightAir tempDewpointWater temp
2017-Dec-12 18:40N 31°58' W 081°03'1 5.1
2017-Dec-12 18:23N 31°59' W 081°02'2 5.1
2017-Dec-12 18:00N 32°01' W 081°02'2 3.3
2017-Dec-12 17:30N 32°03' W 081°02'2 4.8
2017-Dec-12 17:00N 32°04' W 080°59'5 5.9
2017-Dec-12 16:06N 32°06' W 080°54'  
2017-Dec-03 14:02N 34°43' W 076°49'0 7.9
2017-Dec-03 14:00N 34°43' W 076°49'4 8.0
2017-Dec-03 13:30N 34°43' W 076°44'3 6.0
2017-Dec-03 13:00N 34°45' W 076°41'3 6.0
2017-Dec-03 12:30N 34°48' W 076°41'3 5.4
2017-Dec-03 12:00N 34°50' W 076°41'  
Track history (hours):
 
Tides and Currents Weather Stations Pressure Air Temp Water Temp Dewpoint Dewpoint Depression Visibility Wind Speed Wind Dir Waves Ship Positions

Moment Of Zen

Owner: Schroath, Frederick W, Green Cove Springs, FL. More information available from US FCC via Universal Licensing System and Coast Guard Vessel Documentation Center.

Last reported at 2017-Dec-12 18:40 UTC. Time now 2018-Jan-20 03:01 UTC.
Position N 31°58' W 081°03'.
Warning: this ship's position is 38 days out of date.

Length 11 m.

Type: Pleasure craft. MMSI: 367641240.

Date/timePositionNaut miles runAvg speedWind from/ knotsBaromVisibWave heightAir tempDewpointWater temp
2017-Dec-12 18:40N 31°58' W 081°03'1 5.1
2017-Dec-12 18:23N 31°59' W 081°02'2 5.1
2017-Dec-12 18:00N 32°01' W 081°02'2 3.3
2017-Dec-12 17:30N 32°03' W 081°02'2 4.8
2017-Dec-12 17:00N 32°04' W 080°59'5 5.9
2017-Dec-12 16:06N 32°06' W 080°54'  
2017-Dec-03 14:02N 34°43' W 076°49'0 7.9
2017-Dec-03 14:00N 34°43' W 076°49'4 8.0
2017-Dec-03 13:30N 34°43' W 076°44'3 6.0
2017-Dec-03 13:00N 34°45' W 076°41'3 6.0
2017-Dec-03 12:30N 34°48' W 076°41'3 5.4
2017-Dec-03 12:00N 34°50' W 076°41'  

Dump ship's entire track history